Briefing drone pour Vichy (LFLV)

Rechercher une autre localisation

Conditions de vol :


Nous sommes le : Lundi 24 janvier 2022
Il est 22:19 UTC (23:19 LT)

Lever de soleil : 06:51 UTC (07:51 LT)
Coucher de soleil : 17:05 UTC (18:05 LT)

Météo

L'essentiel des conditions de vol

VIGILANCE MÉTÉO FRANCE - Allier (03)
Pas de vigilances particulieres
METAR de LFLV
LFLV 241800Z AUTO 25001KT 8000 NSC 00/M01 Q1030

Date d'émission: 24/01/2022
Heure d'émission: 18:00 UTC
Vent: 250° pour 1 KT (2 km/h)
Visibilité horizontale: 8000 m
Plafond : Pas de nuages significatifs (NSC)
Température: 0 °C
Point de rosée: -1 °C
Humidité: 93%
Pression (QNH): 1030 hPa
Prévision 24h pour Vichy
Vent : 140° pour 0 KT (1 km/h)
Temperature Maxi: 1 °C
Temperature Min: 1 °C
Humidité : 85%
Condition : Ciel dégagé



Warning: count(): Parameter must be an array or an object that implements Countable in /homepages/6/d509196549/htdocs/droneoxygene/briefing.php on line 743
WEBCAM POUR VICHY

Réglementation

Voler en sécurité

CARTES AERONAUTIQUE 1/500.000
CARTES VAC (LFLV)
SUP AIP




Chargement des AIP...
NOTAM (VICHY + Terrain à proximité / FIR )




Chargement des NOTAMS...
CONTACT PREFECTURE 03


Avertissement : Les données mises à disposition sont indicatives. Oxygène Drone ne pourra être tenu responsable de dégâts causés aux biens et aux personnes.